createdAt,value
2023-04-29T00:00:24.716Z,10
2023-04-29T00:01:31.578Z,10
2023-04-29T00:02:38.563Z,11
2023-04-29T00:03:46.320Z,10
2023-04-29T00:04:53.164Z,10
2023-04-29T00:05:59.985Z,11
2023-04-29T00:07:06.676Z,11
2023-04-29T00:08:14.372Z,10
2023-04-29T00:09:22.095Z,11
2023-04-29T00:10:29.147Z,10
2023-04-29T00:11:37.175Z,11
2023-04-29T00:12:44.032Z,10
2023-04-29T00:13:50.924Z,10
2023-04-29T00:14:58.653Z,10
2023-04-29T00:16:05.535Z,11
2023-04-29T00:17:12.526Z,10
2023-04-29T00:18:19.409Z,10
2023-04-29T00:19:27.175Z,11
2023-04-29T00:20:34.096Z,10
2023-04-29T00:21:41.007Z,10
2023-04-29T00:22:47.855Z,10
2023-04-29T00:23:54.771Z,10
2023-04-29T00:25:01.720Z,11
2023-04-29T00:26:09.051Z,10
2023-04-29T00:27:16.874Z,10
2023-04-29T00:28:24.570Z,10
2023-04-29T00:29:31.406Z,10
2023-04-29T00:30:38.405Z,10
2023-04-29T00:31:45.167Z,10
2023-04-29T00:32:52.260Z,10
2023-04-29T00:33:59.168Z,9
2023-04-29T00:35:05.989Z,10
2023-04-29T00:36:13.074Z,8
2023-04-29T00:37:19.960Z,9
2023-04-29T00:38:28.196Z,9
2023-04-29T00:39:35.208Z,8
2023-04-29T00:40:41.962Z,8
2023-04-29T00:41:48.858Z,8
2023-04-29T00:42:55.847Z,8
2023-04-29T00:44:02.801Z,8
2023-04-29T00:45:10.399Z,7
2023-04-29T00:46:17.242Z,7
2023-04-29T00:47:24.941Z,7
2023-04-29T00:48:32.589Z,7
2023-04-29T00:49:39.416Z,7
2023-04-29T00:50:46.262Z,8
2023-04-29T00:51:53.067Z,8
2023-04-29T00:52:59.921Z,8
2023-04-29T00:54:06.733Z,8
2023-04-29T00:55:13.693Z,9
2023-04-29T00:56:20.730Z,8
2023-04-29T00:57:27.606Z,8
2023-04-29T00:58:35.332Z,8
2023-04-29T00:59:42.172Z,8
2023-04-29T01:00:49.017Z,7
2023-04-29T01:01:55.965Z,8
2023-04-29T01:03:03.061Z,8
2023-04-29T01:04:09.997Z,8
2023-04-29T01:05:16.728Z,8
2023-04-29T01:06:23.534Z,8
2023-04-29T01:07:33.970Z,8
2023-04-29T01:08:41.626Z,8
2023-04-29T01:10:01.892Z,7
2023-04-29T01:11:13.961Z,8
2023-04-29T01:12:20.836Z,8
2023-04-29T01:13:32.805Z,8
2023-04-29T01:14:50.097Z,8
2023-04-29T01:16:02.164Z,9
2023-04-29T01:17:09.138Z,8
2023-04-29T01:18:15.955Z,8
2023-04-29T01:19:28.077Z,8
2023-04-29T01:20:43.214Z,8
2023-04-29T01:21:50.188Z,6
2023-04-29T01:22:56.975Z,7
2023-04-29T01:24:04.440Z,6
2023-04-29T01:25:12.234Z,6
2023-04-29T01:26:19.069Z,6
2023-04-29T01:27:25.882Z,6
2023-04-29T01:28:40.495Z,6
2023-04-29T01:29:57.901Z,6
2023-04-29T01:31:15.158Z,6
2023-04-29T01:32:32.826Z,6
2023-04-29T01:33:45.973Z,6
2023-04-29T01:34:57.995Z,6
2023-04-29T01:36:12.790Z,5
2023-04-29T01:37:28.697Z,6
2023-04-29T01:38:45.938Z,6
2023-04-29T01:40:01.146Z,6
2023-04-29T01:41:15.806Z,6
2023-04-29T01:42:30.656Z,6
2023-04-29T01:43:42.689Z,6
2023-04-29T01:44:49.528Z,6
2023-04-29T01:45:56.579Z,6
2023-04-29T01:47:03.467Z,6
2023-04-29T01:48:10.665Z,6
2023-04-29T01:49:17.561Z,6
2023-04-29T01:50:24.438Z,6
2023-04-29T01:51:31.510Z,6
2023-04-29T01:52:38.543Z,6
2023-04-29T01:53:45.392Z,6
2023-04-29T01:54:52.275Z,6
2023-04-29T01:56:00.020Z,6
2023-04-29T01:57:10.410Z,6
2023-04-29T01:58:17.295Z,6
2023-04-29T01:59:24.370Z,6
2023-04-29T02:00:32.037Z,6
2023-04-29T02:01:39.053Z,6
2023-04-29T02:02:46.067Z,6
2023-04-29T02:03:53.045Z,6
2023-04-29T02:04:59.853Z,6
2023-04-29T02:06:06.632Z,6
2023-04-29T02:07:13.395Z,6
2023-04-29T02:08:21.238Z,6
2023-04-29T02:09:28.094Z,5
2023-04-29T02:10:34.898Z,6
2023-04-29T02:11:42.042Z,5
2023-04-29T02:12:48.894Z,6
2023-04-29T02:13:55.736Z,6
2023-04-29T02:15:02.493Z,6
2023-04-29T02:16:09.765Z,6
2023-04-29T02:17:16.742Z,6
2023-04-29T02:18:24.495Z,6
2023-04-29T02:19:31.281Z,6
2023-04-29T02:20:38.059Z,6
2023-04-29T02:21:45.127Z,6
2023-04-29T02:22:51.986Z,5
2023-04-29T02:23:59.794Z,6
2023-04-29T02:25:06.678Z,6
2023-04-29T02:26:14.743Z,6
2023-04-29T02:27:21.542Z,6
2023-04-29T02:28:28.355Z,6
2023-04-29T02:29:35.238Z,6
2023-04-29T02:30:42.132Z,6
2023-04-29T02:31:49.203Z,6
2023-04-29T02:32:59.127Z,6
2023-04-29T02:34:06.023Z,6
2023-04-29T02:35:12.894Z,6
2023-04-29T02:36:19.740Z,6
2023-04-29T02:37:26.633Z,6
2023-04-29T02:38:33.437Z,7
2023-04-29T02:39:41.282Z,6
2023-04-29T02:40:48.139Z,6
2023-04-29T02:41:55.095Z,6
2023-04-29T02:43:01.953Z,6
2023-04-29T02:44:08.776Z,6
2023-04-29T02:45:15.711Z,6
2023-04-29T02:46:22.847Z,7
2023-04-29T02:47:29.651Z,7
2023-04-29T02:48:37.523Z,7
2023-04-29T02:49:44.372Z,6
2023-04-29T02:50:51.359Z,7
2023-04-29T02:51:58.182Z,7
2023-04-29T02:53:04.981Z,7
2023-04-29T02:54:12.668Z,7
2023-04-29T02:55:19.585Z,7
2023-04-29T02:56:26.513Z,7
2023-04-29T02:57:33.384Z,7
2023-04-29T02:58:40.304Z,7
2023-04-29T02:59:47.054Z,7
2023-04-29T03:00:54.018Z,7
2023-04-29T03:02:01.912Z,7
2023-04-29T03:03:09.968Z,8
2023-04-29T03:04:16.825Z,7
2023-04-29T03:05:24.437Z,8
2023-04-29T03:06:32.257Z,7
2023-04-29T03:07:39.021Z,7
2023-04-29T03:08:45.842Z,7
2023-04-29T03:09:52.935Z,7
2023-04-29T03:10:59.614Z,7
2023-04-29T03:12:06.502Z,8
2023-04-29T03:13:13.341Z,7
2023-04-29T03:14:20.156Z,7
2023-04-29T03:15:26.985Z,7
2023-04-29T03:16:34.760Z,7
2023-04-29T03:17:41.525Z,8
2023-04-29T03:18:48.321Z,7
2023-04-29T03:19:55.624Z,7
2023-04-29T03:21:02.589Z,7
2023-04-29T03:22:09.554Z,6
2023-04-29T03:23:17.566Z,6
2023-04-29T03:24:24.334Z,5
2023-04-29T03:25:31.113Z,6
2023-04-29T03:26:38.024Z,5
2023-04-29T03:27:45.043Z,5
2023-04-29T03:28:51.978Z,6
2023-04-29T03:29:59.753Z,6
2023-04-29T03:32:26.893Z,6
2023-04-29T03:33:33.776Z,6
2023-04-29T03:34:40.733Z,6
2023-04-29T03:35:47.561Z,6
2023-04-29T03:36:54.380Z,6
2023-04-29T03:38:01.236Z,6
2023-04-29T03:39:08.093Z,7
2023-04-29T03:40:17.862Z,6
2023-04-29T03:41:24.761Z,6
2023-04-29T03:42:31.653Z,6
2023-04-29T03:43:38.542Z,6
2023-04-29T03:44:45.486Z,6
2023-04-29T03:45:52.403Z,6
2023-04-29T03:46:59.236Z,6
2023-04-29T03:48:06.186Z,6
2023-04-29T03:49:13.097Z,6
2023-04-29T03:50:19.996Z,6
2023-04-29T03:51:26.880Z,6
2023-04-29T03:52:33.746Z,6
2023-04-29T03:53:40.638Z,6
2023-04-29T03:54:47.490Z,6
2023-04-29T03:55:54.238Z,7
2023-04-29T03:57:01.108Z,6
2023-04-29T03:58:09.707Z,6
2023-04-29T03:59:16.581Z,6
2023-04-29T04:00:23.612Z,6
2023-04-29T04:01:30.540Z,6
2023-04-29T04:02:37.449Z,5
2023-04-29T04:03:44.243Z,5
2023-04-29T04:04:51.197Z,4
2023-04-29T04:05:58.041Z,4
2023-04-29T04:07:05.722Z,4
2023-04-29T04:08:13.556Z,5
2023-04-29T04:09:21.233Z,5
2023-04-29T04:10:28.102Z,5
2023-04-29T04:11:34.918Z,6
2023-04-29T04:12:44.024Z,5
2023-04-29T04:13:48.679Z,4
2023-04-29T04:14:55.478Z,5
2023-04-29T04:16:02.387Z,5
2023-04-29T04:17:09.315Z,5
2023-04-29T04:18:16.402Z,6
2023-04-29T04:19:23.205Z,6
2023-04-29T04:20:30.032Z,6
2023-04-29T04:21:36.886Z,5
2023-04-29T04:22:43.646Z,6
2023-04-29T04:23:50.661Z,6
2023-04-29T04:24:57.487Z,4
2023-04-29T04:26:04.482Z,5
2023-04-29T04:27:11.338Z,5
2023-04-29T04:28:18.397Z,4
2023-04-29T04:29:26.169Z,4
2023-04-29T04:30:33.082Z,5
2023-04-29T04:31:39.845Z,4
2023-04-29T04:32:46.782Z,4
2023-04-29T04:33:53.609Z,4
2023-04-29T04:35:00.695Z,4
2023-04-29T04:36:07.792Z,4
2023-04-29T04:37:14.726Z,5
2023-04-29T04:38:21.496Z,5
2023-04-29T04:39:28.350Z,4
2023-04-29T04:40:35.219Z,5
2023-04-29T04:41:44.780Z,5
2023-04-29T04:42:53.095Z,5
2023-04-29T04:43:58.609Z,4
2023-04-29T04:45:05.496Z,5
2023-04-29T04:46:12.898Z,5
2023-04-29T04:47:19.739Z,4
2023-04-29T04:48:26.659Z,4
2023-04-29T04:49:33.524Z,4
2023-04-29T04:50:40.356Z,5
2023-04-29T04:51:47.225Z,5
2023-04-29T04:52:54.838Z,5
2023-04-29T04:54:01.653Z,5
2023-04-29T04:55:08.556Z,5
2023-04-29T04:56:15.484Z,5
2023-04-29T04:57:22.261Z,5
2023-04-29T04:58:29.948Z,5
2023-04-29T04:59:36.774Z,5
2023-04-29T05:00:43.702Z,6
2023-04-29T05:01:50.620Z,6
2023-04-29T05:02:57.607Z,6
2023-04-29T05:04:04.560Z,6
2023-04-29T05:05:11.270Z,5
2023-04-29T05:06:18.117Z,5
2023-04-29T05:07:25.012Z,5
2023-04-29T05:08:31.771Z,5
2023-04-29T05:09:38.656Z,6
2023-04-29T05:10:45.407Z,6
2023-04-29T05:11:52.200Z,5
2023-04-29T05:12:59.099Z,5
2023-04-29T05:14:06.768Z,5
2023-04-29T05:15:13.649Z,4
2023-04-29T05:16:20.545Z,5
2023-04-29T05:17:27.428Z,5
2023-04-29T05:18:34.187Z,5
2023-04-29T05:19:41.235Z,5
2023-04-29T05:20:48.937Z,5
2023-04-29T05:21:55.844Z,4
2023-04-29T05:23:02.672Z,4
2023-04-29T05:24:09.530Z,5
2023-04-29T05:25:16.487Z,5
2023-04-29T05:26:23.419Z,5
2023-04-29T05:27:30.304Z,5
2023-04-29T05:28:37.195Z,5
2023-04-29T05:29:44.151Z,5
2023-04-29T05:30:51.059Z,5
2023-04-29T05:31:57.863Z,4
2023-04-29T05:33:04.849Z,5
2023-04-29T05:34:11.753Z,5
2023-04-29T05:35:18.658Z,5
2023-04-29T05:36:25.532Z,5
2023-04-29T05:37:33.381Z,5
2023-04-29T05:38:41.230Z,5
2023-04-29T05:39:48.071Z,6
2023-04-29T05:40:54.844Z,6
2023-04-29T05:42:01.789Z,6
2023-04-29T05:43:08.671Z,6
2023-04-29T05:44:15.586Z,6
2023-04-29T05:45:22.545Z,6
2023-04-29T05:46:29.510Z,6
2023-04-29T05:47:36.307Z,5
2023-04-29T05:48:43.658Z,6
2023-04-29T05:49:50.883Z,5
2023-04-29T05:50:57.498Z,6
2023-04-29T05:52:04.403Z,6
2023-04-29T05:53:11.249Z,4
2023-04-29T05:54:18.012Z,5
2023-04-29T05:55:25.831Z,5
2023-04-29T05:56:35.311Z,5
2023-04-29T05:57:42.338Z,5
2023-04-29T05:58:49.264Z,5
2023-04-29T05:59:56.145Z,5
2023-04-29T06:01:03.049Z,5
2023-04-29T06:02:09.952Z,6
2023-04-29T06:03:17.114Z,5
2023-04-29T06:04:26.488Z,6
2023-04-29T06:05:33.470Z,6
2023-04-29T06:06:40.125Z,6
2023-04-29T06:07:47.008Z,6
2023-04-29T06:08:53.893Z,7
2023-04-29T06:10:01.220Z,6
2023-04-29T06:11:08.334Z,7
2023-04-29T06:12:15.224Z,7
2023-04-29T06:13:22.117Z,7
2023-04-29T06:14:28.977Z,6
2023-04-29T06:15:35.946Z,6
2023-04-29T06:16:42.813Z,6
2023-04-29T06:17:49.699Z,6
2023-04-29T06:18:56.542Z,6
2023-04-29T06:20:03.524Z,6
2023-04-29T06:21:10.821Z,6
2023-04-29T06:22:17.833Z,6
2023-04-29T06:23:24.759Z,6
2023-04-29T06:24:31.768Z,6
2023-04-29T06:25:40.059Z,7
2023-04-29T06:26:46.942Z,7
2023-04-29T06:27:54.005Z,6
2023-04-29T06:29:00.975Z,8
2023-04-29T06:30:07.845Z,7
2023-04-29T06:31:14.859Z,7
2023-04-29T06:32:21.653Z,7
2023-04-29T06:33:29.550Z,7
2023-04-29T06:34:36.687Z,7
2023-04-29T06:35:43.588Z,7
2023-04-29T06:36:50.397Z,7
2023-04-29T06:37:57.333Z,7
2023-04-29T06:39:04.097Z,7
2023-04-29T06:40:11.075Z,8
2023-04-29T06:41:18.167Z,8
2023-04-29T06:42:25.051Z,8
2023-04-29T06:43:31.992Z,8
2023-04-29T06:44:38.917Z,8
2023-04-29T06:45:45.981Z,9
2023-04-29T06:46:52.848Z,9
2023-04-29T06:47:59.761Z,8
2023-04-29T06:49:06.774Z,9
2023-04-29T06:50:13.662Z,8
2023-04-29T06:51:20.618Z,9
2023-04-29T06:52:27.707Z,8
2023-04-29T06:53:34.657Z,8
2023-04-29T06:54:41.812Z,8
2023-04-29T06:55:48.575Z,7
2023-04-29T06:56:55.413Z,7
2023-04-29T06:58:03.194Z,8
2023-04-29T06:59:10.284Z,8
2023-04-29T07:00:17.300Z,8
2023-04-29T07:01:24.264Z,8
2023-04-29T07:02:31.069Z,9
2023-04-29T07:03:38.163Z,9
2023-04-29T07:04:45.072Z,9
2023-04-29T07:05:51.871Z,8
2023-04-29T07:06:58.714Z,7
2023-04-29T07:08:05.618Z,8
2023-04-29T07:09:12.511Z,8
2023-04-29T07:10:19.453Z,8
2023-04-29T07:11:26.382Z,8
2023-04-29T07:12:33.230Z,8
2023-04-29T07:13:40.096Z,7
2023-04-29T07:14:46.912Z,8
2023-04-29T07:15:54.365Z,7
2023-04-29T07:17:02.937Z,7
2023-04-29T07:18:09.791Z,7
2023-04-29T07:19:16.444Z,6
2023-04-29T07:20:23.316Z,6
2023-04-29T07:21:32.968Z,6
2023-04-29T07:22:39.807Z,7
2023-04-29T07:23:46.634Z,7
2023-04-29T07:24:53.659Z,6
2023-04-29T07:26:00.442Z,6
2023-04-29T07:27:12.467Z,7
2023-04-29T07:28:19.414Z,7
2023-04-29T07:29:26.210Z,6
2023-04-29T07:30:33.069Z,6
2023-04-29T07:31:41.278Z,6
2023-04-29T07:32:48.224Z,7
2023-04-29T07:33:54.951Z,8
2023-04-29T07:35:01.825Z,9
2023-04-29T07:36:08.745Z,8
2023-04-29T07:37:15.559Z,9
2023-04-29T07:38:22.588Z,8
2023-04-29T07:39:29.393Z,10
2023-04-29T07:40:36.185Z,9
2023-04-29T07:41:42.954Z,8
2023-04-29T07:42:49.768Z,8
2023-04-29T07:43:56.653Z,8
2023-04-29T07:45:03.459Z,8
2023-04-29T07:46:10.623Z,10
2023-04-29T07:47:17.361Z,8
2023-04-29T07:48:24.066Z,9
2023-04-29T07:49:30.972Z,9
2023-04-29T07:50:37.918Z,9
2023-04-29T07:51:44.729Z,10
2023-04-29T07:52:51.609Z,8
2023-04-29T07:53:58.413Z,9
2023-04-29T07:55:05.258Z,9
2023-04-29T07:56:12.267Z,9
2023-04-29T07:57:18.968Z,11
2023-04-29T07:58:25.797Z,9
2023-04-29T07:59:32.661Z,9
2023-04-29T08:00:39.632Z,10
2023-04-29T08:01:46.545Z,10
2023-04-29T08:02:53.525Z,10
2023-04-29T08:04:00.505Z,10
2023-04-29T08:05:07.273Z,10
2023-04-29T08:06:14.036Z,9
2023-04-29T08:07:20.817Z,9
2023-04-29T08:08:27.677Z,8
2023-04-29T08:09:34.609Z,9
2023-04-29T08:10:41.504Z,8
2023-04-29T08:11:48.303Z,9
2023-04-29T08:12:55.325Z,10
2023-04-29T08:14:02.204Z,9
2023-04-29T08:15:09.863Z,9
2023-04-29T08:16:15.979Z,9
2023-04-29T08:17:22.770Z,8
2023-04-29T08:18:29.613Z,9
2023-04-29T08:19:36.522Z,9
2023-04-29T08:20:43.385Z,8
2023-04-29T08:21:50.231Z,8
2023-04-29T08:22:57.057Z,8
2023-04-29T08:24:03.892Z,8
2023-04-29T08:25:10.853Z,8
2023-04-29T08:26:17.710Z,8
2023-04-29T08:27:24.533Z,8
2023-04-29T08:28:31.250Z,8
2023-04-29T08:29:38.091Z,7
2023-04-29T08:30:44.990Z,8
2023-04-29T08:31:51.879Z,7
2023-04-29T08:32:58.876Z,8
2023-04-29T08:34:05.700Z,7
2023-04-29T08:35:12.530Z,8
2023-04-29T08:36:19.344Z,7
2023-04-29T08:37:26.293Z,7
2023-04-29T08:38:33.101Z,7
2023-04-29T08:39:39.867Z,7
2023-04-29T08:40:46.690Z,7
2023-04-29T08:41:53.750Z,8
2023-04-29T08:43:00.541Z,7
2023-04-29T08:44:07.375Z,7
2023-04-29T08:45:14.169Z,7
2023-04-29T08:46:21.044Z,8
2023-04-29T08:47:27.762Z,8
2023-04-29T08:48:34.537Z,8
2023-04-29T08:49:41.235Z,7
2023-04-29T08:50:48.107Z,8
2023-04-29T08:51:55.419Z,7
2023-04-29T08:53:02.294Z,7
2023-04-29T08:54:11.377Z,7
2023-04-29T08:55:18.311Z,8
2023-04-29T08:56:26.767Z,8
2023-04-29T08:57:32.961Z,8
2023-04-29T08:58:42.901Z,9
2023-04-29T08:59:49.653Z,8
2023-04-29T09:00:56.498Z,8
2023-04-29T09:02:03.473Z,7
2023-04-29T09:03:10.513Z,8
2023-04-29T09:04:27.579Z,7
2023-04-29T09:05:37.021Z,7
2023-04-29T09:06:43.838Z,7
2023-04-29T09:07:50.761Z,7
2023-04-29T09:08:57.684Z,7
2023-04-29T09:10:04.445Z,7
2023-04-29T09:11:11.344Z,7
2023-04-29T09:12:18.169Z,7
2023-04-29T09:13:24.997Z,8
2023-04-29T09:14:31.845Z,7
2023-04-29T09:15:38.669Z,7
2023-04-29T09:16:45.523Z,8
2023-04-29T09:17:52.328Z,7
2023-04-29T09:18:59.127Z,7
2023-04-29T09:20:06.165Z,8
2023-04-29T09:21:23.372Z,8
2023-04-29T09:22:30.176Z,8
2023-04-29T09:23:36.935Z,12
2023-04-29T09:24:43.906Z,9
2023-04-29T09:25:50.657Z,9
2023-04-29T09:26:57.486Z,10
2023-04-29T09:28:04.297Z,10
2023-04-29T09:29:19.156Z,13
2023-04-29T09:30:25.958Z,12
2023-04-29T09:31:32.748Z,11
2023-04-29T09:32:39.551Z,10
2023-04-29T09:33:46.609Z,8
2023-04-29T09:34:53.604Z,8
2023-04-29T09:36:00.183Z,8
2023-04-29T09:37:07.083Z,9
2023-04-29T09:38:16.848Z,9
2023-04-29T09:39:23.618Z,9
2023-04-29T09:40:30.410Z,9
2023-04-29T09:41:37.201Z,11
2023-04-29T09:42:54.415Z,16
2023-04-29T09:44:01.212Z,11
2023-04-29T09:45:10.878Z,10
2023-04-29T09:46:17.854Z,9
2023-04-29T09:47:24.713Z,10
2023-04-29T09:48:34.175Z,9
2023-04-29T09:49:41.078Z,10
2023-04-29T09:50:47.904Z,9
2023-04-29T09:52:02.702Z,9
2023-04-29T09:53:09.453Z,12
2023-04-29T09:54:16.207Z,9
2023-04-29T09:55:22.987Z,8
2023-04-29T09:56:32.810Z,9
2023-04-29T09:57:39.816Z,9
2023-04-29T09:58:46.444Z,8
2023-04-29T09:59:53.236Z,13
2023-04-29T10:01:00.026Z,13
2023-04-29T10:02:06.935Z,8
2023-04-29T10:03:16.529Z,8
2023-04-29T10:04:23.412Z,8
2023-04-29T10:05:31.901Z,8
2023-04-29T10:06:38.665Z,9
2023-04-29T10:07:45.438Z,10
2023-04-29T10:08:52.234Z,8
2023-04-29T10:09:59.043Z,9
2023-04-29T10:11:06.248Z,9
2023-04-29T10:12:12.782Z,10
2023-04-29T10:13:19.618Z,10
2023-04-29T10:14:29.330Z,9
2023-04-29T10:15:36.136Z,8
2023-04-29T10:16:42.945Z,9
2023-04-29T10:17:49.800Z,7
2023-04-29T10:19:01.745Z,8
2023-04-29T10:20:08.585Z,7
2023-04-29T10:21:18.048Z,7
2023-04-29T10:22:27.743Z,6
2023-04-29T10:23:39.732Z,7
2023-04-29T10:24:46.544Z,6
2023-04-29T10:25:53.452Z,8
2023-04-29T10:27:00.237Z,7
2023-04-29T10:28:06.968Z,8
2023-04-29T10:29:13.812Z,7
2023-04-29T10:30:20.827Z,8
2023-04-29T10:31:28.690Z,7
2023-04-29T10:32:49.563Z,8
2023-04-29T10:33:45.459Z,8
2023-04-29T10:34:52.405Z,7
2023-04-29T10:35:59.046Z,8
2023-04-29T10:37:06.041Z,7
2023-04-29T10:38:12.849Z,8
2023-04-29T10:39:24.849Z,8
2023-04-29T10:40:39.475Z,9
2023-04-29T10:41:46.244Z,8
2023-04-29T10:42:53.077Z,10
2023-04-29T10:44:01.163Z,10
2023-04-29T10:45:06.771Z,10
2023-04-29T10:46:21.743Z,11
2023-04-29T10:47:28.606Z,10
2023-04-29T10:48:35.403Z,10
2023-04-29T10:49:42.313Z,10
2023-04-29T10:50:49.016Z,11
2023-04-29T10:51:55.816Z,10
2023-04-29T10:53:02.559Z,9
2023-04-29T10:54:09.327Z,10
2023-04-29T10:55:16.143Z,9
2023-04-29T10:56:22.937Z,9
2023-04-29T10:57:40.071Z,8
2023-04-29T10:58:47.020Z,10
2023-04-29T10:59:53.664Z,9
2023-04-29T11:01:00.604Z,9
2023-04-29T11:02:07.677Z,10
2023-04-29T11:03:14.551Z,7
2023-04-29T11:04:21.333Z,7
2023-04-29T11:05:28.126Z,7
2023-04-29T11:06:39.815Z,8
2023-04-29T11:07:47.131Z,7
2023-04-29T11:08:54.090Z,7
2023-04-29T11:10:11.217Z,7
2023-04-29T11:11:18.076Z,7
2023-04-29T11:12:24.911Z,8
2023-04-29T11:13:31.757Z,7
2023-04-29T11:14:41.575Z,8
2023-04-29T11:15:53.576Z,7
2023-04-29T11:17:10.686Z,7
2023-04-29T11:18:17.523Z,8
2023-04-29T11:19:24.244Z,8
2023-04-29T11:20:36.288Z,9
2023-04-29T11:21:53.560Z,7
2023-04-29T11:23:10.723Z,7
2023-04-29T11:24:17.588Z,8
2023-04-29T11:25:24.435Z,8
2023-04-29T11:26:31.403Z,7
2023-04-29T11:27:38.285Z,9
2023-04-29T11:28:45.180Z,7
2023-04-29T11:29:51.964Z,8
2023-04-29T11:30:58.727Z,8
2023-04-29T11:32:05.757Z,8
2023-04-29T11:33:12.583Z,7
2023-04-29T11:34:19.425Z,7
2023-04-29T11:35:26.374Z,8
2023-04-29T11:36:33.236Z,7
2023-04-29T11:37:40.228Z,8
2023-04-29T11:38:46.995Z,7
2023-04-29T11:39:53.884Z,8
2023-04-29T11:41:03.369Z,8
2023-04-29T11:42:10.158Z,8
2023-04-29T11:43:16.996Z,8
2023-04-29T11:44:24.019Z,9
2023-04-29T11:45:31.103Z,9
2023-04-29T11:46:40.957Z,9
2023-04-29T11:47:47.799Z,7
2023-04-29T11:48:54.534Z,8
2023-04-29T11:50:01.359Z,7
2023-04-29T11:51:08.338Z,8
2023-04-29T11:52:15.350Z,7
2023-04-29T11:53:22.139Z,8
2023-04-29T11:54:28.955Z,7
2023-04-29T11:55:35.761Z,7
2023-04-29T11:56:42.698Z,8
2023-04-29T11:57:49.714Z,7
2023-04-29T11:58:56.499Z,7
2023-04-29T12:00:03.411Z,7
2023-04-29T12:01:14.450Z,7
2023-04-29T12:02:21.304Z,7
2023-04-29T12:03:33.329Z,7
2023-04-29T12:04:40.140Z,7
2023-04-29T12:05:49.741Z,6
2023-04-29T12:06:56.472Z,7
2023-04-29T12:08:03.326Z,7
2023-04-29T12:09:10.198Z,6
2023-04-29T12:10:16.946Z,6
2023-04-29T12:11:23.739Z,6
2023-04-29T12:12:30.578Z,6
2023-04-29T12:13:37.402Z,6
2023-04-29T12:14:44.224Z,5
2023-04-29T12:15:51.101Z,6
2023-04-29T12:16:57.869Z,5
2023-04-29T12:18:04.648Z,5
2023-04-29T12:19:11.529Z,6
2023-04-29T12:20:18.293Z,6
2023-04-29T12:21:25.108Z,6
2023-04-29T12:22:31.973Z,6
2023-04-29T12:23:38.871Z,5
2023-04-29T12:24:45.761Z,5
2023-04-29T12:25:52.530Z,5
2023-04-29T12:26:59.290Z,5
2023-04-29T12:28:07.873Z,5
2023-04-29T12:29:15.725Z,5
2023-04-29T12:30:22.500Z,6
2023-04-29T12:31:29.387Z,6
2023-04-29T12:32:36.231Z,6
2023-04-29T12:33:43.121Z,6
2023-04-29T12:34:49.992Z,6
2023-04-29T12:35:56.820Z,6
2023-04-29T12:37:03.629Z,6
2023-04-29T12:38:10.476Z,6
2023-04-29T12:39:17.299Z,5
2023-04-29T12:40:24.046Z,5
2023-04-29T12:41:30.855Z,5
2023-04-29T12:42:40.812Z,6
2023-04-29T12:43:47.736Z,6
2023-04-29T12:44:54.794Z,5
2023-04-29T12:46:01.367Z,5
2023-04-29T12:47:10.821Z,5
2023-04-29T12:48:26.497Z,5
2023-04-29T12:49:24.347Z,5
2023-04-29T12:50:31.309Z,5
2023-04-29T12:51:38.273Z,5
2023-04-29T12:52:45.022Z,5
2023-04-29T12:53:51.804Z,5
2023-04-29T12:54:58.627Z,5
2023-04-29T12:56:05.433Z,5
2023-04-29T12:57:12.512Z,5
2023-04-29T12:58:19.158Z,5
2023-04-29T12:59:26.200Z,6
2023-04-29T13:00:33.096Z,5
2023-04-29T13:01:40.045Z,7
2023-04-29T13:02:46.799Z,7
2023-04-29T13:03:54.639Z,8
2023-04-29T13:05:00.519Z,8
2023-04-29T13:06:08.063Z,7
2023-04-29T13:07:15.023Z,6
2023-04-29T13:08:21.708Z,5
2023-04-29T13:09:38.458Z,5
2023-04-29T13:10:48.409Z,6
2023-04-29T13:11:55.178Z,7
2023-04-29T13:13:02.063Z,6
2023-04-29T13:14:09.041Z,5
2023-04-29T13:15:15.886Z,6
2023-04-29T13:16:23.642Z,6
2023-04-29T13:17:30.865Z,6
2023-04-29T13:18:37.973Z,6
2023-04-29T13:19:50.941Z,7
2023-04-29T13:20:53.169Z,7
2023-04-29T13:21:58.543Z,7
2023-04-29T13:23:05.586Z,7
2023-04-29T13:24:12.391Z,7
2023-04-29T13:25:19.178Z,7
2023-04-29T13:26:26.194Z,8
2023-04-29T13:27:33.060Z,8
2023-04-29T13:28:39.842Z,8
2023-04-29T13:29:46.693Z,8
2023-04-29T13:30:54.466Z,8
2023-04-29T13:32:01.447Z,8
2023-04-29T13:33:11.958Z,7
2023-04-29T13:34:15.307Z,6
2023-04-29T13:35:22.108Z,7
2023-04-29T13:36:28.954Z,7
2023-04-29T13:37:35.923Z,6
2023-04-29T13:38:43.414Z,7
2023-04-29T13:39:55.476Z,7
2023-04-29T13:40:56.674Z,7
2023-04-29T13:42:03.722Z,7
2023-04-29T13:43:11.670Z,7
2023-04-29T13:44:29.023Z,6
2023-04-29T13:45:24.104Z,6
2023-04-29T13:46:31.657Z,6
2023-04-29T13:47:52.084Z,6
2023-04-29T13:49:15.793Z,6
2023-04-29T13:51:32.722Z,6
2023-04-29T13:52:50.477Z,6
2023-04-29T13:53:36.207Z,6
2023-04-29T13:54:47.876Z,6
2023-04-29T13:56:15.035Z,6
2023-04-29T13:58:30.641Z,7
2023-04-29T13:59:11.616Z,7
2023-04-29T13:59:53.265Z,6
2023-04-29T14:01:11.033Z,6
2023-04-29T14:02:22.979Z,6
2023-04-29T14:03:13.488Z,6
2023-04-29T14:04:20.502Z,6
2023-04-29T14:05:27.361Z,6
2023-04-29T14:06:34.178Z,6
2023-04-29T14:07:41.004Z,5
2023-04-29T14:08:47.894Z,5
2023-04-29T14:09:54.724Z,4
2023-04-29T14:11:01.554Z,5
2023-04-29T14:12:08.601Z,4
2023-04-29T14:13:15.518Z,4
2023-04-29T14:14:22.295Z,4
2023-04-29T14:15:29.349Z,4
2023-04-29T14:16:39.246Z,4
2023-04-29T14:17:46.144Z,3
2023-04-29T14:18:52.994Z,4
2023-04-29T14:19:59.987Z,4
2023-04-29T14:21:06.965Z,3
2023-04-29T14:22:13.831Z,3
2023-04-29T14:23:20.703Z,3
2023-04-29T14:24:27.472Z,3
2023-04-29T14:25:34.507Z,3
2023-04-29T14:26:41.380Z,3
2023-04-29T14:27:48.232Z,3
2023-04-29T14:28:55.110Z,3
2023-04-29T14:30:02.771Z,3
2023-04-29T14:31:09.945Z,4
2023-04-29T14:32:16.945Z,3
2023-04-29T14:33:23.725Z,4
2023-04-29T14:34:30.509Z,3
2023-04-29T14:35:37.256Z,3
2023-04-29T14:36:46.178Z,3
2023-04-29T14:37:50.914Z,4
2023-04-29T14:38:57.778Z,4
2023-04-29T14:40:04.597Z,4
2023-04-29T14:41:11.601Z,4
2023-04-29T14:42:18.451Z,4
2023-04-29T14:43:25.474Z,3
2023-04-29T14:44:32.345Z,4
2023-04-29T14:45:39.195Z,3
2023-04-29T14:46:45.994Z,4
2023-04-29T14:47:52.834Z,3
2023-04-29T14:48:59.683Z,3
2023-04-29T14:50:06.489Z,4
2023-04-29T14:51:13.308Z,4
2023-04-29T14:52:20.161Z,4
2023-04-29T14:53:26.980Z,4
2023-04-29T14:54:33.864Z,3
2023-04-29T14:55:40.655Z,5
2023-04-29T14:56:47.494Z,4
2023-04-29T14:57:54.315Z,4
2023-04-29T14:59:01.140Z,5
2023-04-29T15:00:08.130Z,4
2023-04-29T15:01:15.314Z,5
2023-04-29T15:02:22.104Z,4
2023-04-29T15:03:28.985Z,4
2023-04-29T15:04:35.788Z,5
2023-04-29T15:05:42.534Z,4
2023-04-29T15:06:49.552Z,5
2023-04-29T15:07:56.334Z,4
2023-04-29T15:09:03.314Z,4
2023-04-29T15:10:10.151Z,4
2023-04-29T15:11:16.990Z,4
2023-04-29T15:12:23.925Z,4
2023-04-29T15:13:32.061Z,4
2023-04-29T15:14:37.681Z,4
2023-04-29T15:15:44.513Z,4
2023-04-29T15:16:54.186Z,4
2023-04-29T15:18:01.024Z,4
2023-04-29T15:19:07.968Z,4
2023-04-29T15:20:14.982Z,4
2023-04-29T15:21:21.821Z,4
2023-04-29T15:22:28.635Z,4
2023-04-29T15:23:35.510Z,4
2023-04-29T15:24:42.409Z,4
2023-04-29T15:25:49.476Z,4
2023-04-29T15:26:56.311Z,4
2023-04-29T15:28:03.064Z,5
2023-04-29T15:29:09.863Z,5
2023-04-29T15:30:16.656Z,5
2023-04-29T15:31:24.905Z,12
2023-04-29T15:32:30.275Z,7
2023-04-29T15:33:37.092Z,5
2023-04-29T15:34:43.934Z,4
2023-04-29T15:35:50.730Z,4
2023-04-29T15:36:57.625Z,5
2023-04-29T15:38:04.411Z,4
2023-04-29T15:39:11.189Z,5
2023-04-29T15:40:18.001Z,5
2023-04-29T15:41:24.753Z,5
2023-04-29T15:42:31.714Z,5
2023-04-29T15:43:38.580Z,4
2023-04-29T15:44:45.413Z,4
2023-04-29T15:45:52.271Z,5
2023-04-29T15:46:59.010Z,4
2023-04-29T15:48:05.905Z,4
2023-04-29T15:49:12.746Z,4
2023-04-29T15:50:19.598Z,5
2023-04-29T15:51:26.433Z,5
2023-04-29T15:52:33.257Z,6
2023-04-29T15:53:41.687Z,6
2023-04-29T15:54:50.166Z,6
2023-04-29T15:55:56.929Z,6
2023-04-29T15:57:03.721Z,7
2023-04-29T15:58:10.487Z,7
2023-04-29T15:59:17.296Z,7
2023-04-29T16:00:24.146Z,9
2023-04-29T16:01:31.053Z,7
2023-04-29T16:02:37.837Z,7
2023-04-29T16:03:44.654Z,8
2023-04-29T16:04:51.502Z,6
2023-04-29T16:05:58.424Z,6
2023-04-29T16:07:05.235Z,6
2023-04-29T16:08:12.878Z,6
2023-04-29T16:09:19.770Z,5
2023-04-29T16:10:26.594Z,6
2023-04-29T16:11:33.421Z,6
2023-04-29T16:12:40.363Z,6
2023-04-29T16:13:47.214Z,6
2023-04-29T16:14:54.032Z,6
2023-04-29T16:16:00.775Z,6
2023-04-29T16:17:07.757Z,7
2023-04-29T16:18:14.641Z,6
2023-04-29T16:19:21.451Z,6
2023-04-29T16:20:28.263Z,6
2023-04-29T16:21:35.068Z,6
2023-04-29T16:22:41.874Z,6
2023-04-29T16:23:48.726Z,6
2023-04-29T16:24:55.615Z,6
2023-04-29T16:26:02.423Z,5
2023-04-29T16:27:09.243Z,6
2023-04-29T16:28:16.016Z,5
2023-04-29T16:29:22.805Z,6
2023-04-29T16:30:29.593Z,6
2023-04-29T16:31:36.403Z,6
2023-04-29T16:32:43.217Z,5
2023-04-29T16:33:49.948Z,5
2023-04-29T16:34:56.714Z,6
2023-04-29T16:36:03.559Z,6
2023-04-29T16:37:10.448Z,6